メインページ
METAR-TAF:

METAR-TAF

空港 :

ジュバイル, サウジアラビア

緯度: 27-02-20N, 経度: 49-24-18E, 海抜: 8m

現時点の気象観測

当レポートは1時間13分前の17:00(UTC)に作成
の風 11kt
気温 24°C
湿度 57%
気圧 1015 hPa
視程: 6000m

METAR: OEJB 171700Z 01011KT 6000 NSC 24/15 Q1015 NOSIG

時間: 21:13 (18:13 UTC)


TAF: 見つかりません

4,000以上の空港の気象観測と天気予報(METAR報とTAF報)

利用可能な観測所は地図上に黄色い丸と赤い丸で示す。

丸の上にカーソルを重ねると観測所名を参照できる。

次にクリックすると気象観測と天気予報を参照できる。

マップの切り替え:黒色「×」印の緑ボタンをクリックして拡大、「-」印の緑ボタンをクリックして縮小、緑色の三角印をクリックして隣りの地図に切り替え


METAR-TAF: